Time;durP1;ratioP1;P1;durP2;ratioP2;P2;SDS_P1;SDS_P2;PMS_P1;PMS_P2;Temp;Humidity;BMP_temperature;BMP_pressure;BME280_temperature;BME280_humidity;BME280_pressure;Samples;Min_cycle;Max_cycle;Signal;HPM_P1;HPM_P2
2023/08/12 00:04:24;;;;;;;1.60;0.90;;;;;;;20.04;63.83;96989.50;10488216;28;20309;-27
2023/08/12 00:09:24;;;;;;;1.45;1.10;;;;;;;20.04;63.78;96984.44;10490651;28;20287;-26
2023/08/12 00:14:25;;;;;;;1.08;0.90;;;;;;;20.03;63.81;96982.75;10487604;28;20039;-26
2023/08/12 00:19:25;;;;;;;1.07;0.93;;;;;;;19.97;63.78;96965.81;10486844;28;20028;-26
2023/08/12 00:24:28;;;;;;;1.00;0.87;;;;;;;20.02;63.87;96971.72;10490988;28;20033;-27
2023/08/12 00:29:28;;;;;;;0.80;0.80;;;;;;;20.03;63.78;96972.56;10488421;28;20318;-27
2023/08/12 00:34:29;;;;;;;1.10;1.00;;;;;;;20.05;63.59;96981.06;10491417;28;20040;-27
2023/08/12 00:39:29;;;;;;;1.40;1.17;;;;;;;20.03;63.82;96977.66;10484079;28;20169;-27
2023/08/12 00:44:29;;;;;;;1.10;1.00;;;;;;;19.96;63.76;96955.66;10490809;28;20769;-27
2023/08/12 00:49:32;;;;;;;1.05;0.90;;;;;;;20.03;63.75;96967.50;10484509;28;20031;-26
2023/08/12 00:54:32;;;;;;;0.65;0.63;;;;;;;20.03;63.84;96967.50;10490442;28;20055;-27
2023/08/12 00:59:35;;;;;;;0.70;0.70;;;;;;;20.04;63.71;96965.00;10493497;28;20024;-27
2023/08/12 01:04:35;;;;;;;1.02;0.93;;;;;;;20.04;63.57;96953.94;10491794;28;20115;-27
2023/08/12 01:09:35;;;;;;;1.87;0.90;;;;;;;20.03;63.60;96953.06;10494429;28;20029;-29
2023/08/12 01:14:49;;;;;;;1.50;1.13;;;;;;;20.04;63.64;96941.22;10490722;28;20082;-29
2023/08/12 01:19:51;;;;;;;0.90;0.70;;;;;;;20.04;63.54;96938.69;10495867;28;20274;-29
2023/08/12 01:24:53;;;;;;;1.13;1.02;;;;;;;20.03;63.43;96934.44;10491737;28;20131;-29
2023/08/12 01:29:53;;;;;;;0.87;0.87;;;;;;;20.03;63.65;96942.06;10493849;28;20379;-29
2023/08/12 01:35:09;;;;;;;0.75;0.75;;;;;;;20.03;63.41;96929.38;10482519;28;20040;-29
2023/08/12 01:40:11;;;;;;;0.80;0.80;;;;;;;20.03;63.52;96927.66;10494302;28;20523;-30
2023/08/12 01:45:11;;;;;;;1.08;0.98;;;;;;;20.01;63.64;96923.47;10479914;28;20592;-29
2023/08/12 01:50:12;;;;;;;1.60;0.82;;;;;;;20.05;63.46;96925.16;10482624;28;20035;-29
2023/08/12 01:55:13;;;;;;;1.13;0.88;;;;;;;20.05;63.47;96925.16;10493470;28;20032;-29
2023/08/12 02:00:13;;;;;;;1.67;1.40;;;;;;;20.02;63.53;96925.97;10492683;28;20036;-30
2023/08/12 02:05:19;;;;;;;1.48;0.80;;;;;;;20.02;63.58;96909.91;10494942;28;20461;-29
2023/08/12 02:10:20;;;;;;;0.80;0.80;;;;;;;19.96;63.34;96894.66;10494812;28;20045;-29
2023/08/12 02:15:20;;;;;;;1.10;1.00;;;;;;;20.04;63.38;96903.09;10490114;28;20044;-29
2023/08/12 02:20:20;;;;;;;1.00;0.90;;;;;;;20.04;63.44;96913.28;10492314;28;20032;-29
2023/08/12 02:25:21;;;;;;;1.17;1.10;;;;;;;20.04;63.67;96908.19;10486908;28;20036;-28
2023/08/12 02:30:21;;;;;;;0.90;0.80;;;;;;;20.03;63.29;96911.56;10492786;28;20286;-29
2023/08/12 02:35:21;;;;;;;1.03;0.83;;;;;;;20.04;63.39;96909.06;10494247;28;20081;-29
2023/08/12 02:40:22;;;;;;;0.93;0.77;;;;;;;20.06;63.42;96911.59;10494862;28;20289;-29
2023/08/12 02:45:22;;;;;;;1.20;1.10;;;;;;;20.06;63.27;96914.13;10495335;28;20044;-29
2023/08/12 02:50:22;;;;;;;0.70;0.70;;;;;;;20.04;63.26;96908.19;10490783;28;20302;-29
2023/08/12 02:55:23;;;;;;;1.17;0.80;;;;;;;20.04;63.43;96901.44;10494133;28;20036;-29
2023/08/12 03:00:23;;;;;;;1.20;1.00;;;;;;;20.06;63.23;96911.59;10485900;28;20102;-27
2023/08/12 03:05:24;;;;;;;0.90;0.80;;;;;;;20.05;63.32;96900.59;10488569;28;20040;-27
2023/08/12 03:10:24;;;;;;;1.00;0.93;;;;;;;20.04;63.21;96892.94;10489579;28;20522;-27
2023/08/12 03:15:25;;;;;;;0.63;0.63;;;;;;;20.05;63.58;96897.19;10493581;28;20048;-27
2023/08/12 03:20:26;;;;;;;0.75;0.60;;;;;;;20.06;63.22;96897.19;10491133;28;20025;-27
2023/08/12 03:25:26;;;;;;;0.87;0.80;;;;;;;20.05;63.34;96889.56;10490904;28;20033;-27
2023/08/12 03:30:27;;;;;;;1.27;1.00;;;;;;;20.02;63.29;96884.47;10486962;28;20029;-27
2023/08/12 03:35:28;;;;;;;1.20;1.00;;;;;;;20.06;63.73;96888.72;10489683;28;20037;-26
2023/08/12 03:40:28;;;;;;;1.00;0.90;;;;;;;20.06;63.45;96888.72;10491031;28;20032;-27
2023/08/12 03:45:30;;;;;;;1.08;0.98;;;;;;;20.05;63.21;96892.97;10480642;28;20347;-27
2023/08/12 03:50:33;;;;;;;0.80;0.80;;;;;;;20.06;63.33;96892.13;10488030;28;20456;-26
2023/08/12 03:55:34;;;;;;;1.05;1.02;;;;;;;20.06;63.10;96896.34;10491976;28;20283;-26
2023/08/12 04:00:35;;;;;;;0.75;0.75;;;;;;;20.06;63.24;96896.34;10481444;28;20505;-28
2023/08/12 04:05:36;;;;;;;0.80;0.80;;;;;;;20.05;63.28;96890.44;10479814;28;20064;-27
2023/08/12 04:10:37;;;;;;;0.70;0.67;;;;;;;20.05;63.10;96894.66;10480372;28;20028;-27
2023/08/12 04:15:37;;;;;;;0.70;0.70;;;;;;;20.05;63.32;96894.66;10483712;28;20033;-27
2023/08/12 04:20:38;;;;;;;1.17;1.07;;;;;;;20.06;63.31;96886.19;10482002;28;20020;-27
2023/08/12 04:25:39;;;;;;;0.88;0.88;;;;;;;20.05;62.74;96889.56;10490977;28;20036;-27
2023/08/12 04:30:44;;;;;;;0.80;0.80;;;;;;;20.06;63.13;96896.34;10484791;28;20020;-27
2023/08/12 04:35:44;;;;;;;0.80;0.70;;;;;;;20.05;63.11;96889.56;10489032;28;20028;-27
2023/08/12 04:40:46;;;;;;;0.80;0.80;;;;;;;19.99;62.96;96876.84;10496179;28;20491;-27
2023/08/12 04:45:48;;;;;;;0.80;0.80;;;;;;;20.05;63.20;96892.13;10477657;28;20037;-27
2023/08/12 04:50:49;;;;;;;1.10;0.90;;;;;;;20.04;63.36;96888.75;10491832;28;20028;-27
2023/08/12 04:55:51;;;;;;;1.08;0.70;;;;;;;20.04;63.09;96885.31;10497016;28;20072;-27
2023/08/12 05:00:53;;;;;;;0.80;0.80;;;;;;;20.05;63.23;96875.19;10491351;28;20032;-27
2023/08/12 05:05:55;;;;;;;0.95;0.75;;;;;;;20.05;62.96;96871.78;10493412;28;20032;-27
2023/08/12 05:11:00;;;;;;;0.77;0.77;;;;;;;20.07;63.10;96867.53;10493875;28;20521;-27
2023/08/12 05:16:00;;;;;;;0.93;0.80;;;;;;;20.07;63.26;96867.53;10492227;28;20044;-27
2023/08/12 05:21:01;;;;;;;0.80;0.80;;;;;;;20.06;63.09;96876.00;10490094;28;20021;-28
2023/08/12 05:26:01;;;;;;;0.80;0.80;;;;;;;20.06;63.34;96873.47;10489733;28;20036;-27
2023/08/12 05:31:01;;;;;;;0.77;0.77;;;;;;;20.08;63.38;96874.34;10497497;28;20079;-27
2023/08/12 05:36:02;;;;;;;0.80;0.80;;;;;;;20.12;63.47;96870.91;10487490;28;20040;-27
2023/08/12 05:41:07;;;;;;;1.15;0.90;;;;;;;20.10;63.28;96877.72;10495876;28;20037;-27
2023/08/12 05:46:07;;;;;;;1.08;0.95;;;;;;;20.12;63.10;96873.44;10490539;28;20119;-27
2023/08/12 05:51:07;;;;;;;0.93;0.67;;;;;;;20.10;63.20;96886.16;10493620;28;20036;-27
2023/08/12 05:56:08;;;;;;;1.30;0.87;;;;;;;20.10;63.35;96878.53;10491505;28;20044;-27
2023/08/12 06:01:08;;;;;;;5.83;1.53;;;;;;;20.14;65.30;96884.44;10482032;28;20119;-27
2023/08/12 06:06:09;;;;;;;3.10;0.90;;;;;;;20.14;63.43;96884.44;10486950;28;20036;-29
2023/08/12 06:11:09;;;;;;;1.48;0.93;;;;;;;20.12;63.18;96886.16;10493357;28;20367;-29
2023/08/12 06:16:09;;;;;;;2.07;0.90;;;;;;;20.12;63.39;96896.31;10494566;28;20048;-30
2023/08/12 06:21:10;;;;;;;3.58;1.35;;;;;;;20.11;63.31;96884.47;10489728;28;20479;-29
2023/08/12 06:26:10;;;;;;;3.80;0.83;;;;;;;20.09;63.32;96878.56;10492837;28;20148;-28
2023/08/12 06:31:10;;;;;;;2.30;0.80;;;;;;;20.05;63.26;96864.16;10480227;28;20292;-28
2023/08/12 06:36:11;;;;;;;1.77;1.40;;;;;;;20.10;63.41;96867.53;10481720;28;20307;-28
2023/08/12 06:41:11;;;;;;;4.73;1.07;;;;;;;20.11;63.93;96877.69;10479481;28;20313;-29
2023/08/12 06:46:12;;;;;;;8.03;2.27;;;;;;;20.13;66.28;96872.59;10483904;28;20662;-29
2023/08/12 06:51:12;;;;;;;4.77;1.20;;;;;;;20.14;64.31;96879.38;10485093;28;20490;-29
2023/08/12 06:56:12;;;;;;;4.70;1.20;;;;;;;20.13;63.82;96882.75;10473673;28;20302;-28
2023/08/12 07:01:13;;;;;;;3.70;1.33;;;;;;;20.13;63.61;96877.69;10481103;28;20108;-29
2023/08/12 07:06:13;;;;;;;7.27;2.20;;;;;;;20.18;66.98;96886.16;10487219;28;20036;-29
2023/08/12 07:11:13;;;;;;;2.73;1.20;;;;;;;20.19;64.80;96880.22;10477668;28;20110;-29
2023/08/12 07:16:14;;;;;;;4.63;1.30;;;;;;;20.16;64.19;96877.66;10480395;28;20108;-29
2023/08/12 07:21:14;;;;;;;2.80;1.20;;;;;;;20.16;64.04;96867.50;10486712;28;20105;-29
2023/08/12 07:26:14;;;;;;;1.33;0.90;;;;;;;20.15;63.84;96875.97;10491266;28;20286;-29
2023/08/12 07:31:15;;;;;;;2.33;1.40;;;;;;;20.13;64.10;96863.28;10490426;28;20029;-29
2023/08/12 07:36:15;;;;;;;1.20;1.10;;;;;;;20.13;63.85;96857.34;10492497;28;20059;-29
2023/08/12 07:41:15;;;;;;;4.20;1.00;;;;;;;20.14;63.98;96856.50;10474999;28;20032;-29
2023/08/12 07:46:16;;;;;;;2.70;0.90;;;;;;;20.12;63.85;96850.56;10486064;28;20040;-29
2023/08/12 07:51:16;;;;;;;2.27;1.07;;;;;;;20.12;63.63;96845.50;10474808;28;20040;-29
2023/08/12 07:56:17;;;;;;;1.23;0.85;;;;;;;20.14;63.65;96859.03;10468628;28;20491;-29
2023/08/12 08:01:17;;;;;;;2.50;1.10;;;;;;;20.11;63.65;96869.22;10481954;28;20372;-29
2023/08/12 08:06:17;;;;;;;1.13;0.83;;;;;;;20.14;63.62;96899.69;10489352;28;20506;-29
2023/08/12 08:11:18;;;;;;;2.60;1.20;;;;;;;20.13;63.72;96918.34;10490930;28;20052;-29
2023/08/12 08:16:18;;;;;;;2.03;1.17;;;;;;;20.11;63.72;96925.16;10489703;28;20494;-29
2023/08/12 08:21:19;;;;;;;0.80;0.80;;;;;;;20.13;63.57;96943.78;10482596;28;20068;-29
2023/08/12 08:26:19;;;;;;;1.08;0.98;;;;;;;20.14;63.49;96955.63;10484356;28;20033;-29
2023/08/12 08:31:19;;;;;;;3.40;1.08;;;;;;;20.13;63.49;96943.78;10475339;28;20045;-29
2023/08/12 08:36:20;;;;;;;2.30;0.90;;;;;;;20.12;63.38;96917.53;10488693;28;20421;-29
2023/08/12 08:41:21;;;;;;;1.63;0.93;;;;;;;20.13;63.59;96914.13;10480600;28;20290;-29
2023/08/12 08:46:22;;;;;;;1.15;1.00;;;;;;;20.13;63.50;96903.09;10490913;28;20045;-29
2023/08/12 08:51:24;;;;;;;2.00;1.17;;;;;;;20.13;63.26;96913.28;10484326;28;20041;-29
2023/08/12 08:56:25;;;;;;;3.03;0.98;;;;;;;20.13;63.63;96921.75;10490331;28;20043;-29
2023/08/12 09:01:28;;;;;;;1.10;0.90;;;;;;;20.13;63.54;96920.91;10483413;28;20508;-29
2023/08/12 09:06:29;;;;;;;1.15;0.80;;;;;;;20.13;63.36;96915.81;10480853;28;20036;-29
2023/08/12 09:11:30;;;;;;;1.35;1.02;;;;;;;20.10;63.53;96920.91;10489892;28;20108;-28
2023/08/12 09:16:31;;;;;;;1.80;0.93;;;;;;;20.14;63.32;96920.03;10486525;28;20047;-29
2023/08/12 09:21:31;;;;;;;1.30;0.67;;;;;;;20.13;63.55;96933.59;10496577;28;20135;-29
2023/08/12 09:26:32;;;;;;;1.60;0.97;;;;;;;20.14;63.19;96941.22;10490476;28;20063;-29
2023/08/12 09:31:32;;;;;;;0.80;0.80;;;;;;;20.14;63.35;96930.22;10492538;28;20342;-29
2023/08/12 09:36:33;;;;;;;2.25;0.75;;;;;;;20.13;63.27;96943.78;10472255;28;20045;-29
2023/08/12 09:41:34;;;;;;;0.73;0.60;;;;;;;20.13;63.32;96936.16;10478948;28;20029;-30
2023/08/12 09:46:34;;;;;;;1.45;0.75;;;;;;;20.13;63.34;96944.63;10496392;28;20115;-29
2023/08/12 09:51:36;;;;;;;0.80;0.70;;;;;;;20.14;63.30;96935.28;10494634;28;20032;-29
2023/08/12 09:56:39;;;;;;;1.08;0.82;;;;;;;20.12;63.28;96921.75;10488556;28;20052;-29
2023/08/12 10:01:43;;;;;;;1.90;1.20;;;;;;;20.14;63.38;96914.97;10495476;28;20028;-28
2023/08/12 10:06:44;;;;;;;1.42;0.88;;;;;;;20.14;63.37;96925.13;10479493;28;20391;-30
2023/08/12 10:11:46;;;;;;;1.30;0.73;;;;;;;20.12;63.21;96921.75;10487325;28;20033;-28
2023/08/12 10:16:47;;;;;;;1.17;0.80;;;;;;;20.14;63.46;96913.28;10486503;28;20041;-28
2023/08/12 10:21:49;;;;;;;0.80;0.80;;;;;;;20.14;63.43;96917.50;10486943;28;20041;-29
2023/08/12 10:26:51;;;;;;;1.40;1.30;;;;;;;20.15;63.34;96909.00;10489297;28;20036;-29
2023/08/12 10:31:51;;;;;;;1.20;0.63;;;;;;;20.12;63.41;96903.97;10494258;28;20036;-28
2023/08/12 10:36:56;;;;;;;1.42;0.80;;;;;;;20.14;63.42;96909.88;10487484;28;20494;-29
2023/08/12 10:41:57;;;;;;;1.10;0.80;;;;;;;20.15;63.37;96914.09;10484381;28;20406;-29
2023/08/12 10:46:58;;;;;;;1.95;1.13;;;;;;;20.13;63.51;96895.47;10485390;28;20032;-29
2023/08/12 10:51:58;;;;;;;0.85;0.70;;;;;;;20.15;63.44;96891.22;10483446;28;20494;-29
2023/08/12 10:57:01;;;;;;;1.23;0.80;;;;;;;20.15;63.46;96891.22;10493959;28;20043;-28
2023/08/12 11:02:17;;;;;;;1.58;1.15;;;;;;;20.14;63.24;96876.81;10489973;28;20044;-29
2023/08/12 11:07:19;;;;;;;1.10;1.00;;;;;;;20.15;63.42;96901.38;10493026;28;20039;-29
2023/08/12 11:12:33;;;;;;;0.80;0.80;;;;;;;20.14;63.58;96909.88;10484456;28;20054;-29
2023/08/12 11:17:37;;;;;;;1.00;0.90;;;;;;;20.16;63.29;96928.50;10484495;28;20043;-29
2023/08/12 11:22:40;;;;;;;2.33;0.80;;;;;;;20.16;63.20;96967.50;10476137;28;20032;-29
2023/08/12 11:27:42;;;;;;;1.48;1.08;;;;;;;20.15;63.33;97003.94;10487315;28;20039;-29
2023/08/12 11:32:47;;;;;;;1.13;0.88;;;;;;;20.17;63.39;97031.91;10492086;28;20021;-29
2023/08/12 11:37:52;;;;;;;1.20;0.90;;;;;;;20.14;63.47;96953.09;10482313;28;20071;-29
2023/08/12 11:42:54;;;;;;;1.00;0.80;;;;;;;20.11;63.29;96899.72;10475290;28;20103;-29
2023/08/12 11:47:55;;;;;;;0.93;0.80;;;;;;;20.15;63.16;96924.28;10486870;28;20033;-29
2023/08/12 11:52:56;;;;;;;1.40;0.90;;;;;;;20.16;63.51;96913.25;10489619;28;20390;-29
2023/08/12 11:57:57;;;;;;;0.80;0.80;;;;;;;20.14;63.35;96910.72;10491457;28;20290;-29
2023/08/12 12:02:58;;;;;;;1.20;1.10;;;;;;;20.15;63.23;96922.59;10477536;28;20493;-29
2023/08/12 12:07:59;;;;;;;1.00;0.80;;;;;;;20.15;63.14;96914.97;10475581;28;20119;-29
2023/08/12 12:13:01;;;;;;;1.45;1.00;;;;;;;20.15;63.27;96904.78;10489005;28;20303;-29
2023/08/12 12:18:01;;;;;;;2.15;0.90;;;;;;;20.16;63.18;96908.16;10491209;28;20036;-29
2023/08/12 12:23:06;;;;;;;1.10;0.90;;;;;;;20.16;63.37;96903.06;10487289;28;20021;-33
2023/08/12 12:28:09;;;;;;;1.25;0.90;;;;;;;20.17;63.15;96904.78;10485981;28;20021;-28
2023/08/12 12:33:09;;;;;;;2.72;1.02;;;;;;;20.10;63.47;96890.41;10476010;28;20029;-30
2023/08/12 12:38:10;;;;;;;0.80;0.80;;;;;;;20.17;63.47;96904.78;10488133;28;20032;-29
2023/08/12 12:43:10;;;;;;;0.60;0.60;;;;;;;20.15;63.29;96901.38;10490608;28;21197;-29
2023/08/12 12:48:10;;;;;;;1.00;0.80;;;;;;;20.18;63.35;96902.22;10487512;28;20044;-29
2023/08/12 12:53:11;;;;;;;0.60;0.60;;;;;;;20.18;63.27;96896.31;10483441;28;20110;-29
2023/08/12 12:58:11;;;;;;;0.80;0.70;;;;;;;20.17;63.46;96892.09;10488118;28;20051;-29
2023/08/12 13:03:11;;;;;;;1.80;1.20;;;;;;;20.16;63.37;96885.28;10488396;28;20032;-29
2023/08/12 13:08:12;;;;;;;1.13;0.80;;;;;;;20.18;63.28;96883.59;10497844;28;20044;-29
2023/08/12 13:13:17;;;;;;;0.97;0.87;;;;;;;20.19;63.39;96877.66;10488796;28;20035;-29
2023/08/12 13:18:17;;;;;;;0.93;0.90;;;;;;;20.18;63.34;96878.53;10489352;28;20298;-29
2023/08/12 13:23:18;;;;;;;1.27;0.80;;;;;;;20.18;63.20;96881.06;10492582;28;20047;-29
2023/08/12 13:28:18;;;;;;;1.23;0.93;;;;;;;20.18;63.66;96875.97;10484656;28;20052;-29
2023/08/12 13:33:18;;;;;;;1.10;1.00;;;;;;;20.18;63.45;96871.72;10487946;28;20036;-29
2023/08/12 13:38:19;;;;;;;2.00;1.00;;;;;;;20.19;63.35;96875.13;10488864;28;20286;-29
2023/08/12 13:43:19;;;;;;;1.50;0.90;;;;;;;20.17;63.98;96866.66;10484745;28;20429;-29
2023/08/12 13:48:20;;;;;;;0.90;0.80;;;;;;;20.18;63.39;96866.63;10488622;28;20282;-29
2023/08/12 13:53:20;;;;;;;0.80;0.65;;;;;;;20.20;63.39;96864.09;10471169;28;20033;-29
2023/08/12 13:58:21;;;;;;;0.80;0.80;;;;;;;20.19;63.57;96863.25;10493111;28;20052;-28
2023/08/12 14:03:21;;;;;;;0.83;0.77;;;;;;;20.19;63.73;96870.88;10495635;28;20037;-29
2023/08/12 14:08:21;;;;;;;1.00;0.80;;;;;;;20.20;63.72;96864.09;10488031;28;20032;-29
2023/08/12 14:13:22;;;;;;;1.40;0.80;;;;;;;20.20;63.50;96869.19;10486891;28;20048;-29
2023/08/12 14:18:22;;;;;;;0.80;0.80;;;;;;;20.15;63.40;96855.63;10488301;28;20772;-28
2023/08/12 14:23:23;;;;;;;1.20;0.93;;;;;;;20.21;63.62;96855.63;10494981;28;20294;-29
2023/08/12 14:28:23;;;;;;;0.70;0.70;;;;;;;20.20;63.41;96856.47;10491297;28;20047;-30
2023/08/12 14:33:24;;;;;;;1.00;0.83;;;;;;;20.21;63.74;96851.38;10469687;28;20043;-29
2023/08/12 14:38:25;;;;;;;1.10;1.02;;;;;;;20.22;63.37;96857.31;10486179;28;20045;-30
2023/08/12 14:43:25;;;;;;;2.05;1.02;;;;;;;20.23;63.64;96854.75;10491162;28;20020;-29
2023/08/12 14:48:26;;;;;;;0.73;0.63;;;;;;;20.22;63.60;96857.31;10477354;28;20040;-29
2023/08/12 14:53:27;;;;;;;1.30;1.10;;;;;;;20.22;63.95;96850.53;10478778;28;20025;-29
2023/08/12 14:58:27;;;;;;;1.52;0.85;;;;;;;20.23;63.87;96848.81;10485378;28;20457;-30
2023/08/12 15:03:27;;;;;;;1.00;0.90;;;;;;;20.22;63.91;96842.03;10476760;28;20032;-30
2023/08/12 15:08:28;;;;;;;1.20;0.90;;;;;;;20.22;63.69;96853.06;10484933;28;20059;-29
2023/08/12 15:13:28;;;;;;;0.93;0.87;;;;;;;20.23;63.91;96843.72;10472095;28;20033;-29
2023/08/12 15:18:29;;;;;;;1.20;0.90;;;;;;;20.23;63.85;96841.19;10482858;28;20037;-29
2023/08/12 15:23:29;;;;;;;1.07;0.93;;;;;;;20.24;64.12;96837.78;10481352;28;20280;-29
2023/08/12 15:28:30;;;;;;;0.70;0.70;;;;;;;20.22;63.92;96837.81;10478945;28;20297;-29
2023/08/12 15:33:30;;;;;;;1.08;0.98;;;;;;;20.22;63.62;96845.44;10484077;28;20031;-29
2023/08/12 15:38:30;;;;;;;0.80;0.73;;;;;;;20.22;63.92;96834.41;10475692;28;20603;-29
2023/08/12 15:43:31;;;;;;;0.95;0.80;;;;;;;20.22;63.78;96842.03;10483804;28;20031;-29
2023/08/12 15:48:31;;;;;;;1.00;0.70;;;;;;;20.22;63.86;96845.44;10474898;28;20029;-29
2023/08/12 15:53:31;;;;;;;0.70;0.70;;;;;;;20.22;63.76;96847.13;10490335;28;20063;-29
2023/08/12 15:58:32;;;;;;;1.10;1.00;;;;;;;20.23;63.88;96839.50;10486382;28;20102;-29
2023/08/12 16:03:32;;;;;;;1.30;1.20;;;;;;;20.23;63.90;96846.28;10472170;28;20290;-29
2023/08/12 16:08:33;;;;;;;1.07;1.00;;;;;;;20.24;64.20;96843.72;10482903;28;20037;-29
2023/08/12 16:13:33;;;;;;;0.80;0.68;;;;;;;20.24;63.79;96842.88;10489541;28;20035;-29
2023/08/12 16:18:34;;;;;;;1.27;1.17;;;;;;;20.23;63.60;96842.06;10479946;28;20063;-28
2023/08/12 16:23:36;;;;;;;1.10;0.80;;;;;;;20.25;63.97;96852.22;10469082;28;20040;-29
2023/08/12 16:28:37;;;;;;;1.20;0.98;;;;;;;20.24;64.23;96855.59;10492409;28;20031;-29
2023/08/12 16:33:37;;;;;;;1.43;1.00;;;;;;;20.19;63.89;96862.41;10499660;28;20028;-29
2023/08/12 16:38:37;;;;;;;0.60;0.53;;;;;;;20.23;63.78;96875.09;10479012;28;20291;-29
2023/08/12 16:43:38;;;;;;;0.80;0.80;;;;;;;20.24;63.71;96886.09;10491506;28;20788;-29
2023/08/12 16:48:38;;;;;;;0.80;0.60;;;;;;;20.25;63.68;96888.66;10477769;28;20030;-29
2023/08/12 16:53:39;;;;;;;1.33;1.00;;;;;;;20.25;64.27;96885.28;10496947;28;20029;-29
2023/08/12 16:58:42;;;;;;;1.13;0.83;;;;;;;20.24;63.58;96876.78;10493447;28;20298;-29
2023/08/12 17:03:42;;;;;;;1.75;1.55;;;;;;;20.23;63.77;96870.00;10481463;28;20086;-29
2023/08/12 17:08:42;;;;;;;0.60;0.60;;;;;;;20.24;63.68;96879.34;10490213;28;20033;-29
2023/08/12 17:13:43;;;;;;;0.70;0.70;;;;;;;20.25;63.61;96877.66;10490351;28;20024;-30
2023/08/12 17:18:43;;;;;;;1.37;0.93;;;;;;;20.24;63.85;96865.75;10489542;28;20032;-29
2023/08/12 17:23:43;;;;;;;0.60;0.60;;;;;;;20.25;63.71;96877.66;10490246;28;20035;-29
2023/08/12 17:28:44;;;;;;;0.70;0.70;;;;;;;20.26;63.59;96880.16;10497112;28;20032;-29
2023/08/12 17:33:45;;;;;;;0.80;0.75;;;;;;;20.25;63.52;96892.91;10495853;28;20035;-29
2023/08/12 17:38:45;;;;;;;1.10;0.82;;;;;;;20.20;63.77;96886.97;10492483;28;20044;-29
2023/08/12 17:43:46;;;;;;;0.90;0.80;;;;;;;20.24;63.56;96875.94;10488242;28;20056;-29
2023/08/12 17:48:47;;;;;;;0.95;0.90;;;;;;;20.23;63.54;96880.19;10493809;28;20075;-29
2023/08/12 17:53:47;;;;;;;0.60;0.60;;;;;;;20.25;63.35;96883.56;10475174;28;20056;-31
2023/08/12 17:58:47;;;;;;;0.70;0.70;;;;;;;20.19;63.91;96875.94;10470083;28;20452;-29
2023/08/12 18:03:48;;;;;;;0.93;0.80;;;;;;;20.24;63.40;96891.19;10497202;28;20031;-29
2023/08/12 18:08:48;;;;;;;1.00;0.70;;;;;;;20.24;63.53;96899.66;10496402;28;20043;-29
2023/08/12 18:13:48;;;;;;;0.97;0.87;;;;;;;20.25;63.44;96901.34;10476506;28;20036;-29
2023/08/12 18:18:49;;;;;;;1.10;0.70;;;;;;;20.26;63.47;96909.84;10476673;28;20037;-30
2023/08/12 18:23:49;;;;;;;0.77;0.70;;;;;;;20.25;63.39;96910.69;10479964;28;20036;-29
2023/08/12 18:28:49;;;;;;;0.70;0.70;;;;;;;20.26;63.54;96925.09;10483797;28;20495;-29
2023/08/12 18:33:50;;;;;;;1.37;0.70;;;;;;;20.27;63.57;96937.78;10482685;28;20433;-30
2023/08/12 18:38:50;;;;;;;0.57;0.55;;;;;;;20.25;63.55;96938.66;10488430;28;20494;-29
2023/08/12 18:43:51;;;;;;;0.73;0.73;;;;;;;20.25;63.33;96938.66;10487678;28;20102;-29
2023/08/12 18:48:51;;;;;;;1.53;0.87;;;;;;;20.25;63.48;96941.22;10495226;28;20043;-29
2023/08/12 18:53:51;;;;;;;0.80;0.77;;;;;;;20.21;63.22;96942.06;10488736;28;20024;-30
2023/08/12 18:58:53;;;;;;;0.93;0.90;;;;;;;20.25;63.46;96962.38;10493719;28;20040;-29
2023/08/12 19:03:53;;;;;;;1.42;0.90;;;;;;;20.24;63.22;96953.06;10485223;28;20077;-29
2023/08/12 19:08:54;;;;;;;0.77;0.57;;;;;;;20.25;63.25;96959.00;10492167;28;20077;-28
2023/08/12 19:13:54;;;;;;;0.60;0.60;;;;;;;20.26;63.21;96978.50;10488853;28;20215;-29
2023/08/12 19:18:57;;;;;;;0.80;0.80;;;;;;;20.26;63.21;96971.69;10484452;28;20077;-29
2023/08/12 19:23:57;;;;;;;0.60;0.60;;;;;;;20.25;63.14;96974.25;10492885;28;20024;-29
2023/08/12 19:29:00;;;;;;;0.47;0.47;;;;;;;20.26;63.03;96975.94;10486464;28;20507;-29
2023/08/12 19:34:01;;;;;;;0.77;0.60;;;;;;;20.26;63.10;96989.50;10492429;28;20028;-29
2023/08/12 19:39:01;;;;;;;0.90;0.70;;;;;;;20.24;63.22;96991.19;10489269;28;20036;-29
2023/08/12 19:44:01;;;;;;;0.70;0.70;;;;;;;20.20;63.35;96979.38;10492316;28;20325;-29
2023/08/12 19:49:02;;;;;;;0.50;0.50;;;;;;;20.25;63.15;96989.50;10485925;28;20028;-29
2023/08/12 19:54:03;;;;;;;0.68;0.63;;;;;;;20.25;63.21;96984.44;10482835;28;20377;-29
2023/08/12 19:59:03;;;;;;;1.13;1.00;;;;;;;20.26;63.16;96993.75;10480089;28;20138;-29
2023/08/12 20:04:04;;;;;;;0.93;0.60;;;;;;;20.25;63.08;96997.97;10488807;28;20039;-29
2023/08/12 20:09:06;;;;;;;0.70;0.70;;;;;;;20.25;63.16;96994.59;10482740;28;20457;-29
2023/08/12 20:14:07;;;;;;;0.80;0.73;;;;;;;20.26;63.42;96997.13;10483752;28;20048;-29
2023/08/12 20:19:08;;;;;;;0.50;0.50;;;;;;;20.23;63.02;96993.72;10490977;28;20029;-28
2023/08/12 20:24:08;;;;;;;0.77;0.77;;;;;;;20.27;63.17;96998.81;10485464;28;20035;-29
2023/08/12 20:29:08;;;;;;;0.60;0.60;;;;;;;20.26;63.17;96996.28;10484700;28;20028;-28
2023/08/12 20:34:09;;;;;;;0.77;0.57;;;;;;;20.26;63.06;97001.38;10490934;28;20465;-30
2023/08/12 20:39:09;;;;;;;0.70;0.70;;;;;;;20.26;63.20;97004.75;10484496;28;20111;-29
2023/08/12 20:44:09;;;;;;;0.70;0.60;;;;;;;20.26;62.97;97003.91;10490891;28;20032;-29
2023/08/12 20:49:10;;;;;;;0.70;0.57;;;;;;;20.24;63.07;97003.06;10486031;28;20043;-29
2023/08/12 20:54:10;;;;;;;0.40;0.40;;;;;;;20.25;63.12;97008.16;10490533;28;20036;-30
2023/08/12 20:59:10;;;;;;;0.77;0.50;;;;;;;20.27;62.90;97008.16;10483303;28;20043;-28
2023/08/12 21:04:11;;;;;;;0.70;0.67;;;;;;;20.26;62.97;97011.53;10490580;28;20033;-29
2023/08/12 21:09:12;;;;;;;0.83;0.60;;;;;;;20.25;62.84;97004.78;10485591;28;20036;-29
2023/08/12 21:14:12;;;;;;;0.80;0.80;;;;;;;20.26;63.10;97002.19;10481715;28;20045;-28
2023/08/12 21:19:16;;;;;;;0.80;0.67;;;;;;;20.23;62.82;97011.53;10489455;28;20044;-29
2023/08/12 21:24:16;;;;;;;0.60;0.60;;;;;;;20.25;62.87;97002.22;10491643;28;20036;-29
2023/08/12 21:29:17;;;;;;;0.60;0.50;;;;;;;20.26;62.90;97001.38;10497368;28;20119;-29
2023/08/12 21:34:17;;;;;;;0.60;0.60;;;;;;;20.25;62.99;96992.06;10496272;28;20036;-29
2023/08/12 21:39:17;;;;;;;0.70;0.70;;;;;;;20.27;63.00;97003.06;10494081;28;20048;-29
2023/08/12 21:44:18;;;;;;;0.73;0.70;;;;;;;20.27;63.04;97008.16;10488576;28;20039;-29
2023/08/12 21:49:19;;;;;;;1.02;0.70;;;;;;;20.27;62.95;96997.97;10491820;28;20047;-28
2023/08/12 21:54:20;;;;;;;0.67;0.60;;;;;;;20.21;63.17;96982.72;10496981;28;20048;-29
2023/08/12 21:59:20;;;;;;;0.60;0.60;;;;;;;20.26;62.78;97002.19;10488829;28;20178;-29
2023/08/12 22:04:20;;;;;;;0.40;0.40;;;;;;;20.27;63.11;96992.91;10496145;28;20448;-29
2023/08/12 22:09:21;;;;;;;0.80;0.60;;;;;;;20.27;62.66;96997.97;10487191;28;20037;-29
2023/08/12 22:14:21;;;;;;;0.73;0.70;;;;;;;20.24;62.95;96982.72;10490993;28;20040;-29
2023/08/12 22:19:22;;;;;;;0.77;0.50;;;;;;;20.26;62.91;96989.50;10495458;28;20050;-29
2023/08/12 22:24:23;;;;;;;0.50;0.50;;;;;;;20.26;62.75;96978.50;10490562;28;20024;-29
2023/08/12 22:29:23;;;;;;;0.55;0.40;;;;;;;20.25;62.97;96974.25;10489318;28;20029;-29
2023/08/12 22:34:24;;;;;;;0.90;0.70;;;;;;;20.27;62.80;96977.63;10483536;28;20036;-29
2023/08/12 22:39:24;;;;;;;0.40;0.33;;;;;;;20.27;62.89;96978.47;10490235;28;20159;-29
2023/08/12 22:44:24;;;;;;;0.52;0.52;;;;;;;20.27;62.96;96985.28;10486650;28;20029;-29
2023/08/12 22:49:25;;;;;;;0.80;0.60;;;;;;;20.27;62.97;96977.63;10487932;28;20028;-29
2023/08/12 22:54:25;;;;;;;1.10;0.67;;;;;;;20.27;62.69;96973.38;10494286;28;20036;-29
2023/08/12 22:59:26;;;;;;;0.43;0.40;;;;;;;20.26;62.88;96976.78;10492337;28;20032;-30
2023/08/12 23:04:26;;;;;;;0.50;0.50;;;;;;;20.25;62.60;96964.09;10493471;28;20574;-29
2023/08/12 23:09:26;;;;;;;0.57;0.50;;;;;;;20.27;63.03;96970.00;10489401;28;20040;-29
2023/08/12 23:14:27;;;;;;;0.30;0.30;;;;;;;20.26;62.58;96961.53;10487577;28;20299;-27
2023/08/12 23:19:27;;;;;;;0.73;0.57;;;;;;;20.26;62.82;96960.69;10490390;28;20123;-29